Time;durP1;ratioP1;P1;durP2;ratioP2;P2;SDS_P1;SDS_P2;PMS_P1;PMS_P2;Temp;Humidity;BMP_temperature;BMP_pressure;BME280_temperature;BME280_humidity;BME280_pressure;Samples;Min_cycle;Max_cycle;Signal;HPM_P1;HPM_P2
2023/07/15 00:00:36;;;;;;;3.85;2.42;;;;;;;;;;5025169;28;20072;-82
2023/07/15 00:03:03;;;;;;;4.18;2.20;;;;;;;;;;5027521;28;20038;-82
2023/07/15 00:05:35;;;;;;;4.50;2.30;;;;;;;;;;5024964;28;20041;-82
2023/07/15 00:08:01;;;;;;;5.28;2.60;;;;;;;;;;5022188;28;20393;-81
2023/07/15 00:10:26;;;;;;;4.28;2.20;;;;;;;;;;5033458;28;20488;-81
2023/07/15 00:12:52;;;;;;;5.20;2.28;;;;;;;;;;5025738;28;20040;-82
2023/07/15 00:15:18;;;;;;;5.30;2.60;;;;;;;;;;5022493;28;20032;-82
2023/07/15 00:17:43;;;;;;;7.20;2.50;;;;;;;;;;5028646;28;20044;-81
2023/07/15 00:20:14;;;;;;;6.05;2.30;;;;;;;;;;5022237;28;20476;-82
2023/07/15 00:22:45;;;;;;;4.60;2.40;;;;;;;;;;5020699;28;20520;-81
2023/07/15 00:25:16;;;;;;;5.05;2.58;;;;;;;;;;5024734;28;20844;-82
2023/07/15 00:27:42;;;;;;;5.72;2.42;;;;;;;;;;5016777;28;20052;-81
2023/07/15 00:30:09;;;;;;;4.75;2.30;;;;;;;;;;5012859;28;20114;-83
2023/07/15 00:32:36;;;;;;;6.22;2.30;;;;;;;;;;5029203;28;20072;-83
2023/07/15 00:35:02;;;;;;;4.90;2.65;;;;;;;;;;5033498;28;20393;-82
2023/07/15 00:37:28;;;;;;;4.75;2.67;;;;;;;;;;5010509;28;20039;-82
2023/07/15 00:39:55;;;;;;;3.72;2.20;;;;;;;;;;5015337;28;20562;-83
2023/07/15 00:42:48;;;;;;;3.72;2.30;;;;;;;;;;5016129;28;20049;-82
2023/07/15 00:45:13;;;;;;;4.22;2.50;;;;;;;;;;5013981;28;20033;-82
2023/07/15 00:47:47;;;;;;;4.43;2.35;;;;;;;;;;5026488;28;20052;-82
2023/07/15 00:50:13;;;;;;;5.00;2.40;;;;;;;;;;5005930;28;20956;-82
2023/07/15 00:52:40;;;;;;;5.35;2.30;;;;;;;;;;5019866;28;20032;-81
2023/07/15 00:55:06;;;;;;;4.67;2.47;;;;;;;;;;5022442;28;20048;-83
2023/07/15 00:57:31;;;;;;;4.53;2.22;;;;;;;;;;5018937;28;20782;-82
2023/07/15 00:59:58;;;;;;;6.68;2.63;;;;;;;;;;5016431;28;20067;-83
2023/07/15 01:02:24;;;;;;;4.35;2.20;;;;;;;;;;5033043;28;20029;-83
2023/07/15 01:04:50;;;;;;;7.25;2.67;;;;;;;;;;5035045;28;20059;-82
2023/07/15 01:07:16;;;;;;;7.20;2.40;;;;;;;;;;5018716;28;20612;-83
2023/07/15 01:09:46;;;;;;;4.60;2.50;;;;;;;;;;5014861;28;20079;-82
2023/07/15 01:12:15;;;;;;;5.75;2.35;;;;;;;;;;5021191;28;20082;-82
2023/07/15 01:14:44;;;;;;;5.13;2.67;;;;;;;;;;5027602;28;20079;-83
2023/07/15 01:17:10;;;;;;;4.78;2.50;;;;;;;;;;5035411;28;20086;-83
2023/07/15 01:19:36;;;;;;;5.10;2.40;;;;;;;;;;5029151;28;20036;-83
2023/07/15 01:22:02;;;;;;;4.85;2.35;;;;;;;;;;5017889;28;20070;-84
2023/07/15 01:24:27;;;;;;;5.07;2.50;;;;;;;;;;5017130;28;20400;-83
2023/07/15 01:27:05;;;;;;;7.90;2.70;;;;;;;;;;5033171;28;20037;-84
2023/07/15 01:29:31;;;;;;;6.68;2.58;;;;;;;;;;5016526;28;20037;-83
2023/07/15 01:31:56;;;;;;;4.53;2.63;;;;;;;;;;5018477;28;20545;-83
2023/07/15 01:34:25;;;;;;;4.95;2.70;;;;;;;;;;5019604;28;20045;-82
2023/07/15 01:36:51;;;;;;;4.63;2.50;;;;;;;;;;5019239;28;20400;-83
2023/07/15 01:39:16;;;;;;;7.38;2.70;;;;;;;;;;5025176;28;20119;-84
2023/07/15 01:41:44;;;;;;;4.03;2.58;;;;;;;;;;5023059;28;20044;-83
2023/07/15 01:44:10;;;;;;;5.65;2.53;;;;;;;;;;5040089;28;20032;-82
2023/07/15 01:46:38;;;;;;;4.47;2.33;;;;;;;;;;5038415;28;20036;-82
2023/07/15 01:49:05;;;;;;;5.13;2.38;;;;;;;;;;5021454;28;20051;-82
2023/07/15 01:51:30;;;;;;;7.70;2.72;;;;;;;;;;5035588;28;20486;-82
2023/07/15 01:53:56;;;;;;;6.10;3.03;;;;;;;;;;5020434;28;20066;-81
2023/07/15 01:56:21;;;;;;;5.38;2.47;;;;;;;;;;5025845;28;20041;-82
2023/07/15 01:58:48;;;;;;;5.80;2.90;;;;;;;;;;5020859;28;20068;-82
2023/07/15 02:01:13;;;;;;;4.93;2.60;;;;;;;;;;5021505;28;20033;-82
2023/07/15 02:03:40;;;;;;;5.93;2.80;;;;;;;;;;5019624;28;20056;-83
2023/07/15 02:06:07;;;;;;;5.18;2.97;;;;;;;;;;5018507;28;20044;-83
2023/07/15 02:08:33;;;;;;;4.90;2.85;;;;;;;;;;5017029;28;20041;-83
2023/07/15 02:10:58;;;;;;;6.47;2.90;;;;;;;;;;5011896;28;20036;-83
2023/07/15 02:13:25;;;;;;;5.38;2.55;;;;;;;;;;5006580;28;20043;-83
2023/07/15 02:15:51;;;;;;;4.97;2.58;;;;;;;;;;5032011;28;20425;-83
2023/07/15 02:18:17;;;;;;;4.95;2.70;;;;;;;;;;5017022;28;20119;-83
2023/07/15 02:20:46;;;;;;;3.95;2.70;;;;;;;;;;5021856;28;20120;-83
2023/07/15 02:23:11;;;;;;;6.25;3.00;;;;;;;;;;5021135;28;20053;-83
2023/07/15 02:25:37;;;;;;;4.68;2.60;;;;;;;;;;5032883;28;20070;-83
2023/07/15 02:28:02;;;;;;;7.22;2.78;;;;;;;;;;5018501;28;20482;-82
2023/07/15 02:30:28;;;;;;;6.53;2.90;;;;;;;;;;5018308;28;20108;-83
2023/07/15 02:32:54;;;;;;;5.72;3.00;;;;;;;;;;5016105;28;20037;-83
2023/07/15 02:35:20;;;;;;;6.15;3.08;;;;;;;;;;5027914;28;20072;-84
2023/07/15 02:37:48;;;;;;;6.97;2.70;;;;;;;;;;5029381;28;20098;-82
2023/07/15 02:40:14;;;;;;;6.25;2.95;;;;;;;;;;5030841;28;20098;-82
2023/07/15 02:42:40;;;;;;;4.25;2.75;;;;;;;;;;5022527;28;20025;-82
2023/07/15 02:45:08;;;;;;;6.50;3.15;;;;;;;;;;5015834;28;20033;-82
2023/07/15 02:47:34;;;;;;;5.35;3.10;;;;;;;;;;5027031;28;20584;-82
2023/07/15 02:50:04;;;;;;;5.22;3.05;;;;;;;;;;5024255;28;20116;-83
2023/07/15 02:52:36;;;;;;;5.13;2.95;;;;;;;;;;5027012;28;20519;-82
2023/07/15 02:55:03;;;;;;;5.97;2.95;;;;;;;;;;5020037;28;20040;-82
2023/07/15 02:57:29;;;;;;;6.43;3.10;;;;;;;;;;5025492;28;20037;-83
2023/07/15 02:59:55;;;;;;;5.57;2.80;;;;;;;;;;5023668;28;20043;-83
2023/07/15 03:02:21;;;;;;;6.78;3.03;;;;;;;;;;5036738;28;20523;-82
2023/07/15 03:04:47;;;;;;;6.43;3.15;;;;;;;;;;5029487;28;20032;-82
2023/07/15 03:07:13;;;;;;;6.20;3.22;;;;;;;;;;5021733;28;20034;-82
2023/07/15 03:09:38;;;;;;;4.40;2.90;;;;;;;;;;5019050;28;20408;-81
2023/07/15 03:12:04;;;;;;;10.15;3.20;;;;;;;;;;5027218;28;20029;-82
2023/07/15 03:14:30;;;;;;;6.85;3.10;;;;;;;;;;5026876;28;20032;-82
2023/07/15 03:16:55;;;;;;;4.93;3.30;;;;;;;;;;5029161;28;20070;-83
2023/07/15 03:19:20;;;;;;;4.53;2.55;;;;;;;;;;5034743;28;20075;-83
2023/07/15 03:21:46;;;;;;;5.32;3.05;;;;;;;;;;5015643;28;20043;-82
2023/07/15 03:24:11;;;;;;;5.63;3.00;;;;;;;;;;5024925;28;20798;-82
2023/07/15 03:26:37;;;;;;;5.95;3.30;;;;;;;;;;5027220;28;20548;-83
2023/07/15 03:29:06;;;;;;;5.95;3.05;;;;;;;;;;5011078;28;20740;-83
2023/07/15 03:31:31;;;;;;;5.65;3.33;;;;;;;;;;5024034;28;20389;-82
2023/07/15 03:33:57;;;;;;;5.57;3.17;;;;;;;;;;5021375;28;20044;-82
2023/07/15 03:36:24;;;;;;;6.72;3.17;;;;;;;;;;5024447;28;20170;-82
2023/07/15 03:38:50;;;;;;;6.68;3.35;;;;;;;;;;5025258;28;20431;-82
2023/07/15 03:41:18;;;;;;;5.20;3.20;;;;;;;;;;5020665;28;20033;-82
2023/07/15 03:43:43;;;;;;;5.30;3.22;;;;;;;;;;5019716;28;20061;-83
2023/07/15 03:46:09;;;;;;;7.07;3.30;;;;;;;;;;5037177;28;20187;-82
2023/07/15 03:48:34;;;;;;;7.28;3.15;;;;;;;;;;5035579;28;20029;-82
2023/07/15 03:51:00;;;;;;;7.03;3.13;;;;;;;;;;5033891;28;20501;-83
2023/07/15 03:53:25;;;;;;;6.25;3.17;;;;;;;;;;5015380;28;20527;-83
2023/07/15 03:55:51;;;;;;;4.93;3.20;;;;;;;;;;5038520;28;20057;-84
2023/07/15 03:58:17;;;;;;;6.63;3.42;;;;;;;;;;5027503;28;20034;-83
2023/07/15 04:00:42;;;;;;;7.50;3.22;;;;;;;;;;5022147;28;20048;-82
2023/07/15 04:03:08;;;;;;;7.18;3.58;;;;;;;;;;5011339;28;20112;-82
2023/07/15 04:05:33;;;;;;;5.30;3.03;;;;;;;;;;5024557;28;20048;-83
2023/07/15 04:07:59;;;;;;;6.07;3.40;;;;;;;;;;5021138;28;20128;-83
2023/07/15 04:10:24;;;;;;;5.40;3.10;;;;;;;;;;5037679;28;20094;-82
2023/07/15 04:12:50;;;;;;;5.15;3.20;;;;;;;;;;5023254;28;20086;-82
2023/07/15 04:15:15;;;;;;;8.10;3.40;;;;;;;;;;5026901;28;20032;-83
2023/07/15 04:17:43;;;;;;;7.00;3.30;;;;;;;;;;5028460;28;20497;-83
2023/07/15 04:20:12;;;;;;;7.45;3.20;;;;;;;;;;5023989;28;20041;-83
2023/07/15 04:22:40;;;;;;;8.05;3.05;;;;;;;;;;5042878;28;20057;-83
2023/07/15 04:25:06;;;;;;;6.35;3.20;;;;;;;;;;5024838;28;20148;-83
2023/07/15 04:27:31;;;;;;;6.05;3.00;;;;;;;;;;5022134;28;20024;-83
2023/07/15 04:29:57;;;;;;;5.93;3.22;;;;;;;;;;5026035;28;20032;-83
2023/07/15 04:32:23;;;;;;;5.75;2.90;;;;;;;;;;5028427;28;20055;-82
2023/07/15 04:34:50;;;;;;;5.68;3.13;;;;;;;;;;5035524;28;20066;-82
2023/07/15 04:37:18;;;;;;;5.32;2.85;;;;;;;;;;5012062;28;20123;-82
2023/07/15 04:39:44;;;;;;;5.70;2.80;;;;;;;;;;5015626;28;20029;-82
2023/07/15 04:42:09;;;;;;;6.05;3.30;;;;;;;;;;5024838;28;20044;-83
2023/07/15 04:44:35;;;;;;;6.50;3.53;;;;;;;;;;5020364;28;20048;-82
2023/07/15 04:47:03;;;;;;;5.53;3.20;;;;;;;;;;4999491;28;20025;-82
2023/07/15 04:49:29;;;;;;;5.18;3.22;;;;;;;;;;5027003;28;20124;-83
2023/07/15 04:51:55;;;;;;;5.10;3.00;;;;;;;;;;5030750;28;20033;-82
2023/07/15 04:54:20;;;;;;;6.63;3.17;;;;;;;;;;5028331;28;20037;-82
2023/07/15 04:56:46;;;;;;;5.55;2.78;;;;;;;;;;5004547;28;20041;-82
2023/07/15 04:59:11;;;;;;;5.32;3.08;;;;;;;;;;5020183;28;20771;-83
2023/07/15 05:01:42;;;;;;;7.18;3.10;;;;;;;;;;5015043;28;20423;-81
2023/07/15 05:04:07;;;;;;;5.28;2.72;;;;;;;;;;5028213;28;20132;-82
2023/07/15 05:06:33;;;;;;;5.65;3.08;;;;;;;;;;5011125;28;20119;-82
2023/07/15 05:09:04;;;;;;;4.40;2.60;;;;;;;;;;5022485;28;20044;-82
2023/07/15 05:11:30;;;;;;;6.53;2.92;;;;;;;;;;5027883;28;20033;-82
2023/07/15 05:13:55;;;;;;;6.05;3.17;;;;;;;;;;5021767;28;20029;-82
2023/07/15 05:16:27;;;;;;;6.00;2.88;;;;;;;;;;5027791;28;20068;-81
2023/07/15 05:18:53;;;;;;;5.72;2.83;;;;;;;;;;5028585;28;20416;-82
2023/07/15 05:21:18;;;;;;;5.20;2.85;;;;;;;;;;5028145;28;20062;-82
2023/07/15 05:23:43;;;;;;;4.38;2.83;;;;;;;;;;5019877;28;20489;-82
2023/07/15 05:26:09;;;;;;;6.55;3.05;;;;;;;;;;5011534;28;20040;-82
2023/07/15 05:28:35;;;;;;;6.72;2.90;;;;;;;;;;5028464;28;20128;-82
2023/07/15 05:31:01;;;;;;;5.55;3.13;;;;;;;;;;5034519;28;20071;-82
2023/07/15 05:33:27;;;;;;;5.25;2.90;;;;;;;;;;5044321;28;20029;-83
2023/07/15 05:35:54;;;;;;;6.38;3.20;;;;;;;;;;5016292;28;20047;-82
2023/07/15 05:38:23;;;;;;;5.43;3.00;;;;;;;;;;5009141;28;20040;-83
2023/07/15 05:40:49;;;;;;;5.88;3.00;;;;;;;;;;5026440;28;20036;-83
2023/07/15 05:43:15;;;;;;;5.93;2.92;;;;;;;;;;5027851;28;20079;-82
2023/07/15 05:45:42;;;;;;;4.40;2.70;;;;;;;;;;5023321;28;20385;-83
2023/07/15 05:48:07;;;;;;;8.30;2.85;;;;;;;;;;5035788;28;20538;-83
2023/07/15 05:50:36;;;;;;;5.20;2.63;;;;;;;;;;5022828;28;20036;-82
2023/07/15 05:53:08;;;;;;;6.10;2.55;;;;;;;;;;5022246;28;20025;-83
2023/07/15 05:55:33;;;;;;;6.55;2.90;;;;;;;;;;5025561;28;20032;-85
2023/07/15 05:58:09;;;;;;;4.82;2.90;;;;;;;;;;5001314;28;20043;-85
2023/07/15 06:00:35;;;;;;;8.20;3.03;;;;;;;;;;5028827;28;20064;-85
2023/07/15 06:03:01;;;;;;;5.60;2.55;;;;;;;;;;5020390;28;20033;-85
2023/07/15 06:05:27;;;;;;;5.75;2.60;;;;;;;;;;5021825;28;20090;-85
2023/07/15 06:07:52;;;;;;;5.25;2.40;;;;;;;;;;5019790;28;20939;-86
2023/07/15 06:10:18;;;;;;;4.20;2.40;;;;;;;;;;5012079;28;20033;-85
2023/07/15 06:12:43;;;;;;;6.50;2.97;;;;;;;;;;5020368;28;20037;-85
2023/07/15 06:15:09;;;;;;;5.70;2.70;;;;;;;;;;5029045;28;20307;-85
2023/07/15 06:17:35;;;;;;;5.70;2.30;;;;;;;;;;5016650;28;20060;-85
2023/07/15 06:20:00;;;;;;;4.00;2.47;;;;;;;;;;5022571;28;20680;-85
2023/07/15 06:22:26;;;;;;;7.45;3.22;;;;;;;;;;5029117;28;20040;-85
2023/07/15 06:24:52;;;;;;;4.82;2.60;;;;;;;;;;5024792;28;20033;-85
2023/07/15 06:27:18;;;;;;;6.30;2.40;;;;;;;;;;5016341;28;20065;-85
2023/07/15 06:29:45;;;;;;;5.15;2.50;;;;;;;;;;5023916;28;20918;-85
2023/07/15 06:32:10;;;;;;;5.13;2.40;;;;;;;;;;5028369;28;20041;-84
2023/07/15 06:34:35;;;;;;;4.15;2.40;;;;;;;;;;5026230;28;20054;-81
2023/07/15 06:37:01;;;;;;;5.93;2.50;;;;;;;;;;5020401;28;20043;-82
2023/07/15 06:39:26;;;;;;;4.70;2.50;;;;;;;;;;5040261;28;20036;-82
2023/07/15 06:41:52;;;;;;;5.13;2.40;;;;;;;;;;5040000;28;20037;-82
2023/07/15 06:44:17;;;;;;;5.70;2.80;;;;;;;;;;5015917;28;20040;-82
2023/07/15 06:46:43;;;;;;;5.05;2.17;;;;;;;;;;5004423;28;20127;-82
2023/07/15 06:49:08;;;;;;;5.93;2.40;;;;;;;;;;5011922;28;20536;-82
2023/07/15 06:51:33;;;;;;;4.70;2.38;;;;;;;;;;5039312;28;20037;-81
2023/07/15 06:53:59;;;;;;;5.22;2.30;;;;;;;;;;5041260;28;20514;-85
2023/07/15 06:56:26;;;;;;;4.00;2.20;;;;;;;;;;5025438;28;20032;-85
2023/07/15 06:58:52;;;;;;;5.55;2.25;;;;;;;;;;5014909;28;20045;-85
2023/07/15 07:01:17;;;;;;;5.90;2.15;;;;;;;;;;4996187;28;20033;-86
2023/07/15 07:03:45;;;;;;;5.78;2.15;;;;;;;;;;5027529;28;20033;-84
2023/07/15 07:06:11;;;;;;;5.70;2.38;;;;;;;;;;5006520;28;20041;-85
2023/07/15 07:08:36;;;;;;;6.28;2.17;;;;;;;;;;5004926;28;20063;-81
2023/07/15 07:11:02;;;;;;;3.85;2.10;;;;;;;;;;5031329;28;20040;-81
2023/07/15 07:13:31;;;;;;;5.05;2.60;;;;;;;;;;5012197;28;20433;-81
2023/07/15 07:15:57;;;;;;;4.13;2.28;;;;;;;;;;5019222;28;20044;-81
2023/07/15 07:18:23;;;;;;;4.90;2.20;;;;;;;;;;5019871;28;20107;-82
2023/07/15 07:20:54;;;;;;;6.85;2.20;;;;;;;;;;5011703;28;20431;-81
2023/07/15 07:23:19;;;;;;;3.65;1.70;;;;;;;;;;5028272;28;20559;-81
2023/07/15 07:25:45;;;;;;;5.22;1.98;;;;;;;;;;5021443;28;20228;-81
2023/07/15 07:28:10;;;;;;;4.63;2.38;;;;;;;;;;5036516;28;20029;-81
2023/07/15 07:30:36;;;;;;;5.18;2.20;;;;;;;;;;5023696;28;20036;-81
2023/07/15 07:33:01;;;;;;;4.63;2.05;;;;;;;;;;5046823;28;20036;-80
2023/07/15 07:35:27;;;;;;;5.03;2.05;;;;;;;;;;4996749;28;20128;-84
2023/07/15 07:37:54;;;;;;;4.18;1.90;;;;;;;;;;5004597;28;20064;-85
2023/07/15 07:40:20;;;;;;;5.10;2.15;;;;;;;;;;5010859;28;20034;-84
2023/07/15 07:42:45;;;;;;;3.72;1.83;;;;;;;;;;5017145;28;20136;-83
2023/07/15 07:45:13;;;;;;;3.42;1.92;;;;;;;;;;5021261;28;20095;-83
2023/07/15 07:47:39;;;;;;;3.35;1.70;;;;;;;;;;5027086;28;20029;-85
2023/07/15 07:50:05;;;;;;;4.55;1.83;;;;;;;;;;5030744;28;20091;-85
2023/07/15 07:52:31;;;;;;;4.68;2.10;;;;;;;;;;5023171;28;20078;-86
2023/07/15 07:54:57;;;;;;;4.13;1.88;;;;;;;;;;5024496;28;20037;-86
2023/07/15 07:57:22;;;;;;;3.78;1.77;;;;;;;;;;5024907;28;20064;-85
2023/07/15 07:59:50;;;;;;;5.15;2.47;;;;;;;;;;5015572;28;20055;-86
2023/07/15 08:02:15;;;;;;;9.00;2.00;;;;;;;;;;5025143;28;20040;-86
2023/07/15 08:04:41;;;;;;;3.67;1.98;;;;;;;;;;5030085;28;20424;-86
2023/07/15 08:07:06;;;;;;;5.43;2.13;;;;;;;;;;5012958;28;20060;-86
2023/07/15 08:09:32;;;;;;;4.82;2.10;;;;;;;;;;5021367;28;20458;-81
2023/07/15 08:11:58;;;;;;;3.22;1.90;;;;;;;;;;5014238;28;20426;-80
2023/07/15 08:14:29;;;;;;;3.88;1.65;;;;;;;;;;5030016;28;20039;-80
2023/07/15 08:16:54;;;;;;;6.50;1.80;;;;;;;;;;5037727;28;20039;-81
2023/07/15 08:19:20;;;;;;;3.85;1.40;;;;;;;;;;5029945;28;20033;-81
2023/07/15 08:21:45;;;;;;;4.53;1.70;;;;;;;;;;5034822;28;20039;-81
2023/07/15 08:24:10;;;;;;;3.30;1.80;;;;;;;;;;5023309;28;20033;-81
2023/07/15 08:26:36;;;;;;;3.10;1.80;;;;;;;;;;5018721;28;20093;-81
2023/07/15 08:29:02;;;;;;;3.22;1.88;;;;;;;;;;5021129;28;20033;-81
2023/07/15 08:31:28;;;;;;;3.00;1.50;;;;;;;;;;5016392;28;20048;-80
2023/07/15 08:33:53;;;;;;;4.28;1.60;;;;;;;;;;5027619;28;20488;-79
2023/07/15 08:36:19;;;;;;;3.65;1.60;;;;;;;;;;5027760;28;20052;-81
2023/07/15 08:38:44;;;;;;;5.53;1.70;;;;;;;;;;5034490;28;20036;-80
2023/07/15 08:41:10;;;;;;;3.88;1.88;;;;;;;;;;5044913;28;20140;-81
2023/07/15 08:43:35;;;;;;;2.95;1.60;;;;;;;;;;5023998;28;20036;-81
2023/07/15 08:46:08;;;;;;;4.75;1.70;;;;;;;;;;5027170;28;20048;-81
2023/07/15 08:48:34;;;;;;;3.88;1.70;;;;;;;;;;5014555;28;20928;-82
2023/07/15 08:51:00;;;;;;;5.10;1.80;;;;;;;;;;5018996;28;20040;-81
2023/07/15 08:53:29;;;;;;;2.80;1.53;;;;;;;;;;5028630;28;20048;-82
2023/07/15 08:55:56;;;;;;;3.50;1.55;;;;;;;;;;5023388;28;20455;-81
2023/07/15 08:58:22;;;;;;;3.03;1.48;;;;;;;;;;5036869;28;20488;-81
2023/07/15 09:00:49;;;;;;;4.40;1.55;;;;;;;;;;5038493;28;20032;-82
2023/07/15 09:03:14;;;;;;;;;;;;;;;;;;5035537;28;20097;-83
2023/07/15 09:05:39;;;;;;;5.63;1.50;;;;;;;;;;5038348;28;19917;-89
2023/07/15 09:08:25;;;;;;;5.13;1.70;;;;;;;;;;5025266;28;20036;-87
2023/07/15 09:10:51;;;;;;;4.18;1.63;;;;;;;;;;5023001;28;20033;-84
2023/07/15 09:13:32;;;;;;;3.50;1.47;;;;;;;;;;5034403;28;20408;-84
2023/07/15 09:15:59;;;;;;;4.28;1.60;;;;;;;;;;5013914;28;20036;-83
2023/07/15 09:18:24;;;;;;;;;;;;;;;;;;5025387;28;20032;-84
2023/07/15 09:21:10;;;;;;;3.93;1.40;;;;;;;;;;5027541;28;20447;-84
2023/07/15 09:23:44;;;;;;;4.60;1.60;;;;;;;;;;5021124;28;20557;-84
2023/07/15 09:26:10;;;;;;;3.03;1.40;;;;;;;;;;5017737;28;20060;-83
2023/07/15 09:28:36;;;;;;;3.65;1.40;;;;;;;;;;5025972;28;20033;-83
2023/07/15 09:31:02;;;;;;;2.65;1.20;;;;;;;;;;5021619;28;20053;-83
2023/07/15 09:33:38;;;;;;;4.13;1.50;;;;;;;;;;5036900;28;20067;-83
2023/07/15 09:36:09;;;;;;;3.67;1.35;;;;;;;;;;5014979;28;20037;-83
2023/07/15 09:38:36;;;;;;;3.78;1.50;;;;;;;;;;4998536;28;20034;-83
2023/07/15 09:41:04;;;;;;;3.78;1.60;;;;;;;;;;5021392;28;20061;-83
2023/07/15 09:43:50;;;;;;;3.60;1.50;;;;;;;;;;4995962;28;20540;-83
2023/07/15 09:46:16;;;;;;;;;;;;;;;;;;5012764;28;20489;-83
2023/07/15 09:48:42;;;;;;;;;;;;;;;;;;5012771;28;19928;-83
2023/07/15 09:51:30;;;;;;;4.97;1.50;;;;;;;;;;5022353;28;20007;-82
2023/07/15 09:53:57;;;;;;;5.72;1.48;;;;;;;;;;4970457;28;20505;-84
2023/07/15 09:56:37;;;;;;;;;;;;;;;;;;4985662;28;20572;-83
2023/07/15 09:59:07;;;;;;;5.30;1.90;;;;;;;;;;4959839;28;19918;-88
2023/07/15 10:01:41;;;;;;;3.00;1.52;;;;;;;;;;4954385;28;20038;-87
2023/07/15 10:04:20;;;;;;;3.55;1.55;;;;;;;;;;4986387;28;20077;-83
2023/07/15 10:06:45;;;;;;;4.00;1.40;;;;;;;;;;4968760;28;20129;-83
2023/07/15 10:09:11;;;;;;;2.90;1.20;;;;;;;;;;4954494;28;20169;-85
2023/07/15 10:11:39;;;;;;;4.00;1.20;;;;;;;;;;4954293;28;20042;-85
2023/07/15 10:14:05;;;;;;;2.35;1.08;;;;;;;;;;4950024;28;20274;-84
2023/07/15 10:16:34;;;;;;;2.67;1.20;;;;;;;;;;4949547;28;20045;-85
2023/07/15 10:19:01;;;;;;;4.35;1.42;;;;;;;;;;4940892;28;20042;-86
2023/07/15 10:21:27;;;;;;;3.17;1.40;;;;;;;;;;4969714;28;20096;-84
2023/07/15 10:24:07;;;;;;;3.22;1.40;;;;;;;;;;4985302;28;20038;-85
2023/07/15 10:26:32;;;;;;;5.05;1.23;;;;;;;;;;4964189;28;20094;-84
2023/07/15 10:28:58;;;;;;;2.67;1.30;;;;;;;;;;4944123;28;20521;-84
2023/07/15 10:31:24;;;;;;;4.25;1.23;;;;;;;;;;4984280;28;20045;-86
2023/07/15 10:33:58;;;;;;;3.50;1.08;;;;;;;;;;5014543;28;20885;-83
2023/07/15 10:36:36;;;;;;;4.50;1.42;;;;;;;;;;5015805;28;20049;-83
2023/07/15 10:39:22;;;;;;;4.13;1.27;;;;;;;;;;5046098;28;20087;-84
2023/07/15 10:41:49;;;;;;;2.58;1.10;;;;;;;;;;5020576;28;20056;-84
2023/07/15 10:44:18;;;;;;;3.22;1.23;;;;;;;;;;5016262;28;20488;-85
2023/07/15 10:46:44;;;;;;;3.50;1.20;;;;;;;;;;5028186;28;20090;-85
2023/07/15 10:49:12;;;;;;;1.98;0.95;;;;;;;;;;5036571;28;20048;-85
2023/07/15 10:51:54;;;;;;;2.60;1.00;;;;;;;;;;5035697;28;20037;-85
2023/07/15 10:54:21;;;;;;;4.50;1.20;;;;;;;;;;5026067;28;20037;-86
2023/07/15 10:56:47;;;;;;;2.63;1.20;;;;;;;;;;5020378;28;20041;-84
2023/07/15 10:59:12;;;;;;;3.28;1.08;;;;;;;;;;5040502;28;20090;-84
2023/07/15 11:01:38;;;;;;;2.80;0.97;;;;;;;;;;5030149;28;20640;-84
2023/07/15 11:04:24;;;;;;;2.57;1.37;;;;;;;;;;5036669;28;20055;-84
2023/07/15 11:06:52;;;;;;;2.42;1.05;;;;;;;;;;4961657;28;20034;-86
2023/07/15 11:09:19;;;;;;;2.50;1.00;;;;;;;;;;4966991;28;20430;-85
2023/07/15 11:11:45;;;;;;;4.05;1.10;;;;;;;;;;4954796;28;20121;-85
2023/07/15 11:14:26;;;;;;;2.65;0.88;;;;;;;;;;4950866;28;20121;-86
2023/07/15 11:16:59;;;;;;;2.17;1.00;;;;;;;;;;4943232;28;20074;-85
2023/07/15 11:19:28;;;;;;;3.50;0.80;;;;;;;;;;4947154;28;20030;-85
2023/07/15 11:21:58;;;;;;;2.63;1.00;;;;;;;;;;4984400;28;20158;-86
2023/07/15 11:24:27;;;;;;;2.42;0.90;;;;;;;;;;4967842;28;20046;-86
2023/07/15 11:26:53;;;;;;;3.33;0.90;;;;;;;;;;4965544;28;20445;-85
2023/07/15 11:29:36;;;;;;;4.13;1.00;;;;;;;;;;4955085;28;20095;-84
2023/07/15 11:32:02;;;;;;;2.70;0.90;;;;;;;;;;4954094;28;20477;-84
2023/07/15 11:34:28;;;;;;;;;;;;;;;;;;4961185;28;20038;-85
2023/07/15 11:37:02;;;;;;;2.78;1.00;;;;;;;;;;4949071;28;20345;-85
2023/07/15 11:39:28;;;;;;;4.70;1.00;;;;;;;;;;4981325;28;20038;-86
2023/07/15 11:41:54;;;;;;;2.47;0.90;;;;;;;;;;4956800;28;20100;-85
2023/07/15 11:44:21;;;;;;;3.10;0.88;;;;;;;;;;5006237;28;20485;-85
2023/07/15 11:47:09;;;;;;;3.13;1.05;;;;;;;;;;5037303;28;20044;-87
2023/07/15 11:49:42;;;;;;;2.25;0.80;;;;;;;;;;4966355;28;20039;-84
2023/07/15 11:52:18;;;;;;;1.83;0.80;;;;;;;;;;4952802;28;20093;-86
2023/07/15 11:54:46;;;;;;;;;;;;;;;;;;4950404;28;20602;-86
2023/07/15 11:57:11;;;;;;;3.08;0.95;;;;;;;;;;4950985;28;19918;-84
2023/07/15 11:59:39;;;;;;;3.73;0.80;;;;;;;;;;4937313;28;20136;-85
2023/07/15 12:02:05;;;;;;;1.98;0.85;;;;;;;;;;4950427;28;20522;-84
2023/07/15 12:04:31;;;;;;;2.23;0.90;;;;;;;;;;4940072;28;20046;-84
2023/07/15 12:07:03;;;;;;;2.60;1.02;;;;;;;;;;4963425;28;20907;-85
2023/07/15 12:09:29;;;;;;;2.33;1.02;;;;;;;;;;4963557;28;20118;-84
2023/07/15 12:11:54;;;;;;;2.20;0.80;;;;;;;;;;4941970;28;20617;-83
2023/07/15 12:14:20;;;;;;;4.73;0.90;;;;;;;;;;4948863;28;20117;-85
2023/07/15 12:16:47;;;;;;;3.30;1.07;;;;;;;;;;4931136;28;20042;-84
2023/07/15 12:19:14;;;;;;;5.22;0.73;;;;;;;;;;4949152;28;20332;-85
2023/07/15 12:21:42;;;;;;;3.50;1.00;;;;;;;;;;4950310;28;20050;-84
2023/07/15 12:24:08;;;;;;;2.58;0.90;;;;;;;;;;4950959;28;20042;-84
2023/07/15 12:26:33;;;;;;;6.13;1.47;;;;;;;;;;4972130;28;20061;-84
2023/07/15 12:28:59;;;;;;;2.10;0.90;;;;;;;;;;5028263;28;20098;-85
2023/07/15 12:31:28;;;;;;;3.43;0.87;;;;;;;;;;5017537;28;20563;-85
2023/07/15 12:34:02;;;;;;;2.40;0.80;;;;;;;;;;4987800;28;20103;-85
2023/07/15 12:36:28;;;;;;;3.35;0.88;;;;;;;;;;4968310;28;20456;-84
2023/07/15 12:39:28;;;;;;;3.17;1.00;;;;;;;;;;5013690;28;20041;-84
2023/07/15 12:41:59;;;;;;;3.20;1.00;;;;;;;;;;5032191;28;20033;-84
2023/07/15 12:44:25;;;;;;;2.53;0.90;;;;;;;;;;5017181;28;20389;-85
2023/07/15 12:46:53;;;;;;;2.17;0.95;;;;;;;;;;5015395;28;20037;-86
2023/07/15 12:49:19;;;;;;;2.38;1.00;;;;;;;;;;5018295;28;20136;-85
2023/07/15 12:51:44;;;;;;;3.33;1.20;;;;;;;;;;5022873;28;20040;-85
2023/07/15 12:54:10;;;;;;;2.20;0.95;;;;;;;;;;5009460;28;20032;-84
2023/07/15 12:56:35;;;;;;;3.15;0.82;;;;;;;;;;5003347;28;20111;-85
2023/07/15 12:59:01;;;;;;;2.05;0.98;;;;;;;;;;5011102;28;20036;-85
2023/07/15 13:01:26;;;;;;;2.63;0.98;;;;;;;;;;5014789;28;20820;-83
2023/07/15 13:03:54;;;;;;;6.97;1.00;;;;;;;;;;5007289;28;20033;-86
2023/07/15 13:06:37;;;;;;;2.50;0.90;;;;;;;;;;5014761;28;20045;-84
2023/07/15 13:09:03;;;;;;;2.00;0.90;;;;;;;;;;5007670;28;20114;-85
2023/07/15 13:11:31;;;;;;;2.83;1.00;;;;;;;;;;5012356;28;20045;-85
2023/07/15 13:13:56;;;;;;;3.10;0.93;;;;;;;;;;5036271;28;20638;-85
2023/07/15 13:16:25;;;;;;;2.42;0.98;;;;;;;;;;5002597;28;20149;-85
2023/07/15 13:18:50;;;;;;;2.72;1.00;;;;;;;;;;5016888;28;20037;-86
2023/07/15 13:21:15;;;;;;;2.40;1.00;;;;;;;;;;5025009;28;20397;-86
2023/07/15 13:23:44;;;;;;;4.40;1.05;;;;;;;;;;5017362;28;20036;-84
2023/07/15 13:26:40;;;;;;;1.95;0.80;;;;;;;;;;4992810;28;20663;-84
2023/07/15 13:29:12;;;;;;;1.80;0.60;;;;;;;;;;4978064;28;20511;-85
2023/07/15 13:31:43;;;;;;;2.17;0.80;;;;;;;;;;5013411;28;20036;-85
2023/07/15 13:34:40;;;;;;;2.30;0.80;;;;;;;;;;5025854;28;20131;-85
2023/07/15 13:38:09;;;;;;;2.75;1.10;;;;;;;;;;4988776;28;20630;-85
2023/07/15 13:40:35;;;;;;;2.95;0.85;;;;;;;;;;4925826;28;20531;-85
2023/07/15 13:43:00;;;;;;;2.40;0.70;;;;;;;;;;4998757;28;20106;-85
2023/07/15 13:45:41;;;;;;;;;;;;;;;;;;;;;
2023/07/15 13:48:35;;;;;;;2.92;0.90;;;;;;;;;;4999476;28;20300;-84
2023/07/15 13:51:01;;;;;;;4.05;1.13;;;;;;;;;;4985103;28;20118;-85
2023/07/15 13:53:38;;;;;;;2.40;0.98;;;;;;;;;;5015011;28;20509;-85
2023/07/15 13:56:04;;;;;;;1.92;0.80;;;;;;;;;;5003699;28;20044;-85
2023/07/15 13:58:30;;;;;;;2.35;1.02;;;;;;;;;;5016235;28;20040;-84
2023/07/15 14:00:55;;;;;;;2.05;0.90;;;;;;;;;;5017382;28;20032;-84
2023/07/15 14:03:39;;;;;;;1.80;0.82;;;;;;;;;;5027016;28;20040;-84
2023/07/15 14:06:05;;;;;;;2.30;0.80;;;;;;;;;;4995639;28;20053;-82
2023/07/15 14:08:39;;;;;;;2.60;1.00;;;;;;;;;;4993717;28;20034;-83
2023/07/15 14:11:05;;;;;;;4.38;1.00;;;;;;;;;;4955519;28;20046;-83
2023/07/15 14:16:48;;;;;;;2.88;1.08;;;;;;;;;;4931904;28;20527;-83
2023/07/15 14:19:45;;;;;;;2.35;1.00;;;;;;;;;;4961880;28;20042;-83
2023/07/15 14:22:20;;;;;;;3.70;1.10;;;;;;;;;;4982400;28;21508;-84
2023/07/15 14:24:56;;;;;;;2.53;1.00;;;;;;;;;;5013251;28;20033;-84
2023/07/15 14:27:44;;;;;;;2.17;0.83;;;;;;;;;;4990063;28;20449;-84
2023/07/15 14:30:35;;;;;;;2.20;1.00;;;;;;;;;;5008816;28;20087;-83
2023/07/15 14:33:09;;;;;;;1.95;0.90;;;;;;;;;;4998368;28;20033;-84
2023/07/15 14:35:55;;;;;;;2.33;0.90;;;;;;;;;;4973824;28;20041;-84
2023/07/15 14:38:21;;;;;;;1.75;0.90;;;;;;;;;;4993392;28;20044;-83
2023/07/15 14:40:46;;;;;;;2.45;0.90;;;;;;;;;;5019754;28;20037;-83
2023/07/15 14:43:38;;;;;;;2.40;1.00;;;;;;;;;;5015370;28;20116;-83
2023/07/15 14:46:08;;;;;;;2.33;1.02;;;;;;;;;;5014653;28;20037;-84
2023/07/15 14:48:47;;;;;;;;;;;;;;;;;;;;;
2023/07/15 14:51:31;;;;;;;2.10;0.88;;;;;;;;;;5012141;28;20031;-84
2023/07/15 14:54:13;;;;;;;2.55;0.95;;;;;;;;;;5009229;28;20235;-86
2023/07/15 14:57:16;;;;;;;3.40;0.85;;;;;;;;;;5045726;28;20116;-85
2023/07/15 14:59:41;;;;;;;3.05;0.90;;;;;;;;;;5006789;28;20427;-86